createdAt,value
2022-11-15T00:02:44.176Z,101160.87
2022-11-15T00:08:10.585Z,101161.87
2022-11-15T00:13:37.116Z,101160.30
2022-11-15T00:19:04.617Z,101160.30
2022-11-15T00:24:31.505Z,101157.44
2022-11-15T00:29:58.355Z,101158.88
2022-11-15T00:35:25.542Z,101148.55
2022-11-15T00:40:52.243Z,101141.91
2022-11-15T00:46:20.633Z,101139.74
2022-11-15T00:51:45.917Z,101133.01
2022-11-15T00:57:12.736Z,101128.44
2022-11-15T01:02:39.469Z,101117.81
2022-11-15T01:08:06.257Z,101106.96
2022-11-15T01:13:36.149Z,101104.89
2022-11-15T01:19:02.238Z,101102.09
2022-11-15T01:24:28.393Z,101092.23
2022-11-15T01:29:54.806Z,101083.80
2022-11-15T01:35:21.297Z,101079.40
2022-11-15T01:40:47.583Z,101079.02
2022-11-15T01:46:25.992Z,101068.39
2022-11-15T01:51:52.875Z,101062.16
2022-11-15T01:57:18.921Z,101059.23
2022-11-15T02:02:45.408Z,101055.70
2022-11-15T02:08:20.979Z,101051.15
2022-11-15T02:13:48.473Z,101049.58
2022-11-15T02:19:30.953Z,101040.77
2022-11-15T02:25:27.989Z,101038.25
2022-11-15T02:31:02.175Z,101032.23
2022-11-15T02:36:37.733Z,101029.38
2022-11-15T02:42:29.957Z,101027.70
2022-11-15T02:48:00.584Z,101024.73
2022-11-15T02:53:29.735Z,101017.75
2022-11-15T02:59:16.064Z,101014.42
2022-11-15T03:04:47.198Z,101013.39
2022-11-15T03:10:20.249Z,101008.31
2022-11-15T03:15:53.193Z,101003.05
2022-11-15T03:21:23.364Z,101004.81
2022-11-15T03:26:50.852Z,100999.04
2022-11-15T03:32:21.456Z,100993.40
2022-11-15T03:37:52.802Z,100990.00
2022-11-15T03:43:32.971Z,100983.16
2022-11-15T03:49:08.491Z,100978.80
2022-11-15T03:54:34.794Z,100973.44
2022-11-15T04:00:01.156Z,100964.67
2022-11-15T04:05:27.694Z,100962.58
2022-11-15T04:10:55.601Z,100960.59
2022-11-15T04:16:22.133Z,100951.48
2022-11-15T04:22:06.262Z,100953.33
2022-11-15T04:27:32.253Z,100948.30
2022-11-15T04:32:58.405Z,100943.05
2022-11-15T04:38:24.966Z,100937.77
2022-11-15T04:43:51.403Z,100935.69
2022-11-15T04:49:18.932Z,100936.73
2022-11-15T04:54:45.910Z,100936.95
2022-11-15T05:00:15.283Z,100930.63
2022-11-15T05:05:42.041Z,100921.94
2022-11-15T05:11:08.660Z,100910.34
2022-11-15T05:16:35.301Z,100903.19
2022-11-15T05:22:01.748Z,100905.67
2022-11-15T05:27:28.289Z,100901.05
2022-11-15T05:32:55.623Z,100898.98
2022-11-15T05:38:22.029Z,100896.27
2022-11-15T05:43:50.164Z,100893.52
2022-11-15T05:49:20.358Z,100897.05
2022-11-15T05:54:47.478Z,100904.33
2022-11-15T06:00:16.077Z,100912.06
2022-11-15T06:05:41.050Z,100909.77
2022-11-15T06:11:11.218Z,100901.10
2022-11-15T06:16:37.950Z,100900.88
2022-11-15T06:22:04.557Z,100904.67
2022-11-15T06:27:30.954Z,100917.73
2022-11-15T06:33:03.491Z,100915.59
2022-11-15T06:38:30.235Z,100916.02
2022-11-15T06:43:57.341Z,100917.69
2022-11-15T06:49:23.669Z,100915.63
2022-11-15T06:54:50.117Z,100913.63
2022-11-15T07:00:22.000Z,100919.84
2022-11-15T07:05:56.842Z,100927.67
2022-11-15T07:11:23.420Z,100932.91
2022-11-15T07:16:49.894Z,100931.67
2022-11-15T07:22:16.162Z,100935.27
2022-11-15T07:27:42.443Z,100934.56
2022-11-15T07:33:08.750Z,100929.50
2022-11-15T07:38:42.192Z,100931.07
2022-11-15T07:44:09.997Z,100924.42
2022-11-15T07:49:36.573Z,100919.47
2022-11-15T07:55:03.082Z,100909.48
2022-11-15T08:00:29.686Z,100909.39
2022-11-15T08:05:59.449Z,100905.04
2022-11-15T08:11:28.467Z,100905.34
2022-11-15T08:16:56.547Z,100900.80
2022-11-15T08:22:25.416Z,100905.18
2022-11-15T08:27:55.462Z,100906.67
2022-11-15T08:33:22.096Z,100905.27
2022-11-15T08:38:48.928Z,100896.71
2022-11-15T08:44:15.350Z,100897.95
2022-11-15T08:49:42.245Z,100894.41
2022-11-15T08:55:10.387Z,100886.16
2022-11-15T09:00:41.310Z,100880.70
2022-11-15T09:06:08.078Z,100882.77
2022-11-15T09:11:35.309Z,100878.50
2022-11-15T09:17:02.905Z,100873.67
2022-11-15T09:22:29.715Z,100868.27
2022-11-15T09:27:56.443Z,100867.50
2022-11-15T09:33:22.602Z,100866.60
2022-11-15T09:38:49.231Z,100862.48
2022-11-15T09:44:41.106Z,100858.13
2022-11-15T09:50:14.199Z,100854.80
2022-11-15T09:55:23.708Z,100846.84
2022-11-15T10:00:52.710Z,100842.80
2022-11-15T10:06:04.814Z,100835.43
2022-11-15T10:17:09.796Z,100834.23
2022-11-15T10:22:27.094Z,100827.28
2022-11-15T10:27:35.459Z,100825.48
2022-11-15T10:32:44.997Z,100826.20
2022-11-15T10:37:52.953Z,100825.78
2022-11-15T10:43:08.511Z,100815.90
2022-11-15T10:48:29.291Z,100807.75
2022-11-15T10:53:44.171Z,100806.56
2022-11-15T10:58:55.666Z,100808.07
2022-11-15T11:04:05.955Z,100807.80
2022-11-15T11:09:31.193Z,100808.08
2022-11-15T11:14:40.728Z,100807.06
2022-11-15T11:19:59.255Z,100809.91
2022-11-15T11:25:20.649Z,100805.83
2022-11-15T11:30:38.602Z,100797.71
2022-11-15T11:35:57.603Z,100796.89
2022-11-15T11:41:16.685Z,100790.85
2022-11-15T11:46:49.849Z,100784.89
2022-11-15T11:52:04.635Z,100781.16
2022-11-15T11:57:23.863Z,100779.50
2022-11-15T12:02:36.794Z,100775.39
2022-11-15T12:07:47.536Z,100774.86
2022-11-15T12:13:02.819Z,100769.55
2022-11-15T12:18:16.399Z,100760.09
2022-11-15T12:23:29.995Z,100758.90
2022-11-15T12:29:04.384Z,100755.23
2022-11-15T12:34:37.859Z,100752.66
2022-11-15T12:40:21.846Z,100747.89
2022-11-15T12:45:32.397Z,100742.89
2022-11-15T12:51:00.051Z,100744.54
2022-11-15T12:56:27.526Z,100745.02
2022-11-15T13:01:59.441Z,100735.13
2022-11-15T13:07:09.739Z,100734.34
2022-11-15T13:12:53.983Z,100733.98
2022-11-15T13:18:21.576Z,100734.41
2022-11-15T13:23:29.635Z,100734.31
2022-11-15T13:28:38.623Z,100729.48
2022-11-15T13:33:46.989Z,100731.58
2022-11-15T13:39:03.945Z,100727.45
2022-11-15T13:44:23.547Z,100725.24
2022-11-15T13:49:34.875Z,100720.64
2022-11-15T13:54:47.265Z,100714.73
2022-11-15T13:59:57.832Z,100719.13
2022-11-15T14:05:16.615Z,100714.19
2022-11-15T14:10:32.186Z,100708.07
2022-11-15T14:15:41.759Z,100703.30
2022-11-15T14:20:49.490Z,100695.56
2022-11-15T14:25:56.328Z,100695.08
2022-11-15T14:31:07.211Z,100689.65
2022-11-15T14:36:18.289Z,100684.23
2022-11-15T14:41:27.645Z,100673.64
2022-11-15T14:46:35.300Z,100668.20
2022-11-15T14:51:43.241Z,100665.21
2022-11-15T14:56:50.840Z,100670.15
2022-11-15T15:02:00.290Z,100673.95
2022-11-15T15:07:08.254Z,100673.26
2022-11-15T15:12:21.406Z,100674.17
2022-11-15T15:17:29.132Z,100680.09
2022-11-15T15:22:37.076Z,100679.05
2022-11-15T15:27:44.803Z,100680.60
2022-11-15T15:32:52.642Z,100682.63
2022-11-15T15:38:00.882Z,100682.99
2022-11-15T15:43:10.340Z,100677.73
2022-11-15T15:48:19.471Z,100672.91
2022-11-15T15:53:27.042Z,100666.63
2022-11-15T15:58:35.057Z,100672.27
2022-11-15T16:03:43.218Z,100666.20
2022-11-15T16:09:13.723Z,100660.89
2022-11-15T16:14:19.073Z,100653.27
2022-11-15T16:19:26.838Z,100648.23
2022-11-15T16:24:34.746Z,100649.27
2022-11-15T16:29:42.436Z,100651.29
2022-11-15T16:34:50.697Z,100651.70
2022-11-15T16:40:00.983Z,100651.70
2022-11-15T16:45:13.369Z,100655.19
2022-11-15T16:50:25.253Z,100658.52
2022-11-15T16:55:33.752Z,100660.35
2022-11-15T17:00:41.524Z,100658.42
2022-11-15T17:05:49.695Z,100654.67
2022-11-15T17:10:57.663Z,100650.48
2022-11-15T17:16:08.167Z,100653.48
2022-11-15T17:21:18.579Z,100652.91
2022-11-15T17:26:31.995Z,100653.45
2022-11-15T17:31:41.894Z,100647.71
2022-11-15T17:36:49.600Z,100652.86
2022-11-15T17:41:57.260Z,100649.10
2022-11-15T17:47:05.090Z,100648.36
2022-11-15T17:52:12.829Z,100647.60
2022-11-15T17:57:20.536Z,100647.71
2022-11-15T18:02:28.316Z,100648.30
2022-11-15T18:07:36.094Z,100648.34
2022-11-15T18:12:43.785Z,100652.21
2022-11-15T18:17:51.679Z,100645.29
2022-11-15T18:22:59.403Z,100638.00
2022-11-15T18:28:07.211Z,100629.78
2022-11-15T18:33:14.896Z,100623.78
2022-11-15T18:38:22.663Z,100614.50
2022-11-15T18:43:30.609Z,100617.34
2022-11-15T18:48:39.970Z,100614.66
2022-11-15T18:53:48.763Z,100614.27
2022-11-15T18:58:58.242Z,100619.56
2022-11-15T19:04:08.733Z,100615.71
2022-11-15T19:09:18.848Z,100620.57
2022-11-15T19:14:27.947Z,100622.52
2022-11-15T19:19:35.618Z,100624.05
2022-11-15T19:24:43.413Z,100623.70
2022-11-15T19:29:51.042Z,100620.53
2022-11-15T19:34:58.762Z,100624.98
2022-11-15T19:40:07.591Z,100621.77
2022-11-15T19:45:15.483Z,100614.20
2022-11-15T19:50:21.702Z,100617.94
2022-11-15T19:55:29.385Z,100618.16
2022-11-15T20:00:37.229Z,100616.23
2022-11-15T20:05:44.986Z,100614.09
2022-11-15T20:10:52.928Z,100620.34
2022-11-15T20:16:00.926Z,100620.98
2022-11-15T20:21:10.144Z,100615.73
2022-11-15T20:26:19.574Z,100619.77
2022-11-15T20:31:27.957Z,100623.11
2022-11-15T20:36:35.890Z,100623.62
2022-11-15T20:41:44.744Z,100625.39
2022-11-15T20:46:53.044Z,100625.23
2022-11-15T20:52:01.073Z,100619.32
2022-11-15T20:57:08.999Z,100621.71
2022-11-15T21:02:17.576Z,100615.66
2022-11-15T21:07:26.872Z,100616.90
2022-11-15T21:12:34.863Z,100613.04
2022-11-15T21:17:42.801Z,100612.98
2022-11-15T21:22:49.712Z,100605.15
2022-11-15T21:27:57.897Z,100588.36
2022-11-15T21:33:06.093Z,100586.66
2022-11-15T21:38:14.635Z,100586.55
2022-11-15T21:43:22.961Z,100587.31
2022-11-15T21:48:34.858Z,100580.61
2022-11-15T21:53:43.256Z,100574.34
2022-11-15T21:58:53.808Z,100565.71
2022-11-15T22:04:05.426Z,100570.33
2022-11-15T22:09:18.037Z,100570.29
2022-11-15T22:14:28.419Z,100564.44
2022-11-15T22:19:51.596Z,100570.07
2022-11-15T22:25:01.134Z,100557.52
2022-11-15T22:30:11.317Z,100552.02
2022-11-15T22:35:19.799Z,100545.00
2022-11-15T22:40:27.972Z,100538.34
2022-11-15T22:45:38.856Z,100549.18
2022-11-15T22:50:48.350Z,100550.36
2022-11-15T22:55:58.716Z,100553.42
2022-11-15T23:01:07.420Z,100546.88
2022-11-15T23:06:15.320Z,100540.40
2022-11-15T23:11:40.911Z,100541.27
2022-11-15T23:16:48.800Z,100540.17
2022-11-15T23:22:12.621Z,100539.33
2022-11-15T23:27:21.069Z,100532.84
2022-11-15T23:32:46.817Z,100531.55
2022-11-15T23:37:55.303Z,100528.86
2022-11-15T23:43:03.282Z,100526.23
2022-11-15T23:48:09.573Z,100525.65
2022-11-15T23:53:17.521Z,100523.23
2022-11-15T23:58:23.890Z,100514.56
